createdAt,value
2023-03-31T00:00:57.963Z,73.01
2023-03-31T00:03:27.650Z,72.07
2023-03-31T00:05:59.376Z,72.13
2023-03-31T00:08:30.501Z,72.49
2023-03-31T00:11:01.070Z,72.72
2023-03-31T00:13:29.195Z,72.74
2023-03-31T00:16:02.074Z,73.44
2023-03-31T00:18:31.572Z,72.56
2023-03-31T00:21:08.528Z,72.26
2023-03-31T00:23:36.440Z,71.79
2023-03-31T00:26:04.778Z,71.33
2023-03-31T00:28:32.912Z,71.70
2023-03-31T00:31:02.735Z,71.90
2023-03-31T00:33:32.221Z,70.97
2023-03-31T00:36:02.322Z,71.04
2023-03-31T00:38:30.987Z,70.64
2023-03-31T00:40:59.927Z,70.63
2023-03-31T00:43:30.979Z,69.99
2023-03-31T00:46:08.425Z,69.86
2023-03-31T00:48:39.329Z,69.88
2023-03-31T00:51:08.910Z,69.72
2023-03-31T00:53:38.774Z,70.00
2023-03-31T00:56:13.074Z,71.00
2023-03-31T00:58:43.772Z,70.45
2023-03-31T01:01:17.513Z,70.21
2023-03-31T01:03:48.376Z,70.59
2023-03-31T01:06:21.063Z,71.02
2023-03-31T01:08:51.173Z,70.40
2023-03-31T01:11:23.048Z,70.55
2023-03-31T01:13:56.218Z,70.45
2023-03-31T01:16:24.582Z,70.19
2023-03-31T01:18:53.896Z,70.70
2023-03-31T01:22:05.524Z,70.56
2023-03-31T01:25:12.576Z,71.10
2023-03-31T01:28:09.221Z,71.49
2023-03-31T01:31:03.018Z,71.12
2023-03-31T01:34:12.640Z,70.76
2023-03-31T01:37:16.098Z,70.43
2023-03-31T01:40:12.158Z,71.08
2023-03-31T01:42:44.413Z,70.83
2023-03-31T01:45:24.215Z,71.45
2023-03-31T01:47:59.196Z,71.07
2023-03-31T01:50:32.445Z,70.87
2023-03-31T01:53:06.833Z,70.57
2023-03-31T01:55:37.975Z,70.75
2023-03-31T01:58:13.153Z,70.96
2023-03-31T02:00:46.859Z,71.54
2023-03-31T02:03:19.251Z,71.31
2023-03-31T02:05:53.508Z,71.71
2023-03-31T02:08:26.179Z,71.93
2023-03-31T02:10:56.000Z,71.31
2023-03-31T02:13:28.643Z,71.82
2023-03-31T02:16:02.473Z,72.12
2023-03-31T02:18:38.227Z,71.47
2023-03-31T02:21:08.649Z,71.99
2023-03-31T02:23:39.406Z,72.20
2023-03-31T02:26:14.647Z,71.55
2023-03-31T02:28:43.357Z,71.05
2023-03-31T02:31:24.842Z,71.30
2023-03-31T02:33:52.980Z,70.95
2023-03-31T02:36:22.423Z,70.94
2023-03-31T02:38:56.430Z,70.82
2023-03-31T02:41:26.107Z,71.05
2023-03-31T02:43:54.077Z,70.71
2023-03-31T02:46:24.983Z,71.53
2023-03-31T02:48:56.653Z,71.63
2023-03-31T02:51:53.741Z,71.23
2023-03-31T02:54:35.825Z,71.04
2023-03-31T02:57:21.344Z,70.91
2023-03-31T03:00:01.253Z,70.70
2023-03-31T03:02:41.118Z,70.56
2023-03-31T03:05:23.632Z,70.71
2023-03-31T03:08:27.431Z,70.42
2023-03-31T03:11:06.423Z,70.08
2023-03-31T03:13:42.834Z,70.28
2023-03-31T03:16:19.323Z,70.01
2023-03-31T03:18:57.075Z,70.33
2023-03-31T03:21:25.318Z,70.12
2023-03-31T03:23:53.597Z,69.68
2023-03-31T03:26:23.593Z,69.78
2023-03-31T03:28:53.205Z,69.70
2023-03-31T03:31:23.876Z,69.36
2023-03-31T03:33:52.583Z,69.73
2023-03-31T03:36:21.070Z,69.55
2023-03-31T03:38:49.290Z,70.05
2023-03-31T03:41:17.594Z,69.91
2023-03-31T03:43:45.731Z,70.17
2023-03-31T03:46:15.519Z,70.27
2023-03-31T03:48:43.556Z,70.81
2023-03-31T03:51:11.596Z,70.05
2023-03-31T03:53:39.543Z,70.29
2023-03-31T03:56:08.075Z,70.17
2023-03-31T03:58:36.592Z,70.36
2023-03-31T04:01:05.028Z,70.33
2023-03-31T04:03:34.378Z,70.72
2023-03-31T04:06:02.599Z,71.59
2023-03-31T04:08:30.474Z,71.57
2023-03-31T04:10:58.456Z,71.85
2023-03-31T04:13:26.536Z,71.55
2023-03-31T04:15:54.750Z,71.77
2023-03-31T04:18:23.910Z,71.69
2023-03-31T04:21:04.071Z,73.18
2023-03-31T04:23:32.503Z,73.65
2023-03-31T04:26:01.408Z,74.42
2023-03-31T04:28:35.194Z,74.02
2023-03-31T04:31:03.962Z,74.12
2023-03-31T04:33:34.110Z,74.44
2023-03-31T04:36:07.123Z,74.91
2023-03-31T04:38:35.463Z,75.62
2023-03-31T04:41:03.618Z,75.64
2023-03-31T04:43:31.576Z,75.78
2023-03-31T04:45:59.717Z,75.52
2023-03-31T04:48:27.777Z,75.76
2023-03-31T04:50:55.734Z,76.37
2023-03-31T04:53:26.130Z,76.21
2023-03-31T04:55:54.335Z,76.41
2023-03-31T04:58:22.565Z,77.07
2023-03-31T05:00:51.054Z,77.44
2023-03-31T05:03:19.288Z,77.27
2023-03-31T05:05:48.477Z,77.56
2023-03-31T05:08:16.789Z,77.57
2023-03-31T05:10:46.429Z,77.27
2023-03-31T05:13:14.303Z,77.37
2023-03-31T05:15:45.146Z,77.33
2023-03-31T05:18:13.097Z,77.58
2023-03-31T05:20:41.684Z,77.83
2023-03-31T05:23:09.784Z,77.64
2023-03-31T05:25:37.806Z,77.33
2023-03-31T05:28:07.291Z,77.14
2023-03-31T05:30:35.345Z,76.89
2023-03-31T05:33:03.426Z,76.84
2023-03-31T05:35:31.805Z,76.86
2023-03-31T05:37:59.839Z,76.08
2023-03-31T05:40:27.893Z,76.41
2023-03-31T05:42:55.952Z,76.43
2023-03-31T05:45:25.226Z,76.23
2023-03-31T05:47:53.915Z,75.79
2023-03-31T05:50:22.712Z,76.06
2023-03-31T05:52:51.027Z,76.15
2023-03-31T05:55:19.882Z,75.87
2023-03-31T05:57:47.829Z,75.51
2023-03-31T06:00:16.666Z,75.41
2023-03-31T06:02:46.032Z,75.82
2023-03-31T06:05:14.167Z,75.87
2023-03-31T06:07:42.089Z,76.05
2023-03-31T06:10:10.979Z,75.98
2023-03-31T06:12:39.154Z,75.67
2023-03-31T06:15:08.126Z,76.08
2023-03-31T06:17:38.396Z,75.79
2023-03-31T06:20:20.408Z,75.54
2023-03-31T06:22:55.238Z,75.49
2023-03-31T06:25:23.529Z,75.61
2023-03-31T06:27:51.746Z,75.53
2023-03-31T06:30:21.151Z,75.47
2023-03-31T06:32:49.316Z,75.29
2023-03-31T06:35:19.152Z,75.39
2023-03-31T06:37:47.366Z,74.74
2023-03-31T06:40:15.970Z,75.06
2023-03-31T06:42:44.278Z,74.68
2023-03-31T06:45:12.319Z,75.10
2023-03-31T06:47:41.576Z,74.75
2023-03-31T06:50:11.850Z,74.38
2023-03-31T06:52:42.101Z,74.32
2023-03-31T06:55:11.045Z,74.33
2023-03-31T06:57:39.871Z,74.34
2023-03-31T07:00:09.865Z,74.41
2023-03-31T07:02:38.373Z,74.68
2023-03-31T07:05:07.758Z,74.46
2023-03-31T07:07:36.669Z,74.72
2023-03-31T07:10:07.633Z,74.59
2023-03-31T07:12:35.743Z,74.09
2023-03-31T07:15:03.822Z,74.27
2023-03-31T07:17:31.835Z,74.29
2023-03-31T07:20:00.346Z,73.99
2023-03-31T07:22:28.726Z,73.97
2023-03-31T07:24:56.817Z,73.98
2023-03-31T07:27:26.524Z,73.98
2023-03-31T07:29:55.254Z,74.01
2023-03-31T07:32:25.252Z,74.45
2023-03-31T07:34:55.223Z,74.63
2023-03-31T07:37:23.914Z,74.16
2023-03-31T07:39:52.192Z,73.98
2023-03-31T07:42:20.212Z,73.67
2023-03-31T07:44:49.712Z,74.51
2023-03-31T07:47:17.584Z,74.54
2023-03-31T07:49:45.744Z,74.09
2023-03-31T07:52:13.660Z,73.87
2023-03-31T07:54:41.893Z,74.03
2023-03-31T07:57:10.142Z,73.83
2023-03-31T07:59:39.910Z,73.96
2023-03-31T08:02:11.631Z,74.40
2023-03-31T08:04:42.201Z,74.47
2023-03-31T08:07:10.636Z,74.39
2023-03-31T08:09:39.282Z,73.79
2023-03-31T08:12:07.406Z,73.71
2023-03-31T08:14:41.132Z,74.25
2023-03-31T08:17:12.201Z,74.33
2023-03-31T08:19:40.394Z,74.09
2023-03-31T08:22:08.707Z,74.22
2023-03-31T08:24:36.778Z,73.68
2023-03-31T08:27:04.964Z,73.46
2023-03-31T08:29:32.889Z,73.47
2023-03-31T08:32:01.102Z,73.26
2023-03-31T08:34:30.593Z,72.79
2023-03-31T08:36:58.661Z,73.34
2023-03-31T08:39:27.315Z,72.67
2023-03-31T08:41:59.276Z,72.90
2023-03-31T08:44:35.751Z,73.29
2023-03-31T08:47:06.835Z,73.52
2023-03-31T08:49:45.363Z,73.61
2023-03-31T08:52:16.801Z,73.55
2023-03-31T08:54:50.798Z,73.54
2023-03-31T08:57:22.120Z,73.82
2023-03-31T08:59:51.148Z,74.02
2023-03-31T09:02:29.865Z,74.41
2023-03-31T09:05:16.244Z,74.60
2023-03-31T09:07:56.729Z,75.10
2023-03-31T09:10:36.901Z,75.50
2023-03-31T09:13:16.165Z,76.08
2023-03-31T09:15:48.721Z,76.71
2023-03-31T09:18:21.958Z,76.64
2023-03-31T09:20:58.331Z,77.02
2023-03-31T09:23:30.454Z,77.19
2023-03-31T09:26:00.447Z,77.12
2023-03-31T09:28:35.422Z,77.15
2023-03-31T09:31:09.637Z,77.38
2023-03-31T09:33:43.435Z,77.60
2023-03-31T09:36:17.575Z,77.97
2023-03-31T09:38:47.173Z,78.51
2023-03-31T09:41:17.313Z,78.36
2023-03-31T09:43:47.197Z,78.28
2023-03-31T09:46:21.083Z,78.37
2023-03-31T09:48:56.747Z,78.02
2023-03-31T09:51:30.556Z,77.93
2023-03-31T09:54:06.084Z,78.45
2023-03-31T09:56:36.756Z,78.45
2023-03-31T09:59:05.455Z,78.69
2023-03-31T10:01:33.614Z,78.66
2023-03-31T10:04:05.532Z,78.17
2023-03-31T10:06:41.625Z,78.44
2023-03-31T10:09:12.464Z,78.65
2023-03-31T10:11:41.228Z,78.90
2023-03-31T10:14:15.826Z,78.34
2023-03-31T10:16:47.871Z,77.78
2023-03-31T10:19:23.563Z,77.39
2023-03-31T10:21:59.707Z,77.54
2023-03-31T10:24:28.861Z,78.02
2023-03-31T10:26:58.697Z,78.15
2023-03-31T10:29:32.375Z,78.01
2023-03-31T10:32:05.407Z,77.73
2023-03-31T10:34:34.418Z,77.54
2023-03-31T10:37:07.505Z,78.43
2023-03-31T10:39:35.619Z,77.91
2023-03-31T10:42:04.147Z,77.88
2023-03-31T10:44:38.157Z,77.46
2023-03-31T10:47:17.903Z,77.88
2023-03-31T10:49:49.258Z,77.92
2023-03-31T10:52:22.324Z,77.83
2023-03-31T10:54:52.850Z,77.97
2023-03-31T10:57:32.535Z,78.83
2023-03-31T11:00:20.078Z,78.31
2023-03-31T11:03:05.717Z,78.53
2023-03-31T11:05:41.969Z,78.43
2023-03-31T11:08:23.833Z,78.35
2023-03-31T11:11:11.333Z,77.91
2023-03-31T11:13:45.859Z,78.12
2023-03-31T11:16:26.926Z,77.83
2023-03-31T11:19:12.724Z,78.05
2023-03-31T11:21:53.530Z,77.97
2023-03-31T11:24:37.468Z,77.79
2023-03-31T11:27:13.620Z,77.44
2023-03-31T11:29:46.953Z,77.38
2023-03-31T11:32:34.886Z,76.79
2023-03-31T11:35:18.193Z,76.76
2023-03-31T11:38:11.724Z,76.49
2023-03-31T11:40:56.466Z,75.85
2023-03-31T11:43:31.450Z,75.47
2023-03-31T11:46:03.976Z,75.67
2023-03-31T11:48:41.567Z,74.01
2023-03-31T11:51:15.825Z,73.04
2023-03-31T11:53:46.418Z,72.99
2023-03-31T11:56:17.687Z,73.06
2023-03-31T11:58:49.155Z,71.76
2023-03-31T12:01:22.912Z,71.56
2023-03-31T12:03:58.014Z,71.31
2023-03-31T12:06:30.982Z,71.64
2023-03-31T12:09:08.724Z,72.00
2023-03-31T12:11:42.895Z,71.74
2023-03-31T12:14:22.668Z,72.83
2023-03-31T12:16:54.230Z,73.58
2023-03-31T12:19:27.754Z,74.34
2023-03-31T12:22:03.618Z,75.04
2023-03-31T12:24:33.502Z,75.15
2023-03-31T12:27:13.441Z,75.36
2023-03-31T12:29:46.445Z,75.16
2023-03-31T12:32:20.553Z,74.71
2023-03-31T12:34:57.125Z,74.70
2023-03-31T12:37:56.234Z,75.00
2023-03-31T12:40:36.834Z,73.58
2023-03-31T12:43:52.610Z,74.52
2023-03-31T12:46:34.265Z,75.30
2023-03-31T12:49:15.856Z,75.34
2023-03-31T12:52:03.762Z,75.44
2023-03-31T12:55:10.659Z,75.78
2023-03-31T12:57:38.720Z,74.91
2023-03-31T13:00:27.021Z,75.49
2023-03-31T13:03:28.543Z,74.72
2023-03-31T13:05:56.919Z,74.53
2023-03-31T13:08:56.718Z,73.79
2023-03-31T13:11:38.424Z,73.49
2023-03-31T13:14:14.038Z,73.73
2023-03-31T13:16:43.554Z,73.62
2023-03-31T13:19:26.011Z,72.98
2023-03-31T13:21:56.799Z,73.43
2023-03-31T13:24:26.262Z,72.65
2023-03-31T13:26:56.979Z,72.72
2023-03-31T13:29:26.954Z,72.88
2023-03-31T13:32:21.416Z,72.57
2023-03-31T13:34:57.223Z,71.45
2023-03-31T13:37:47.093Z,70.37
2023-03-31T13:40:43.724Z,70.45
2023-03-31T13:43:30.108Z,70.47
2023-03-31T13:46:19.972Z,69.40
2023-03-31T13:48:59.638Z,69.80
2023-03-31T13:51:39.020Z,70.71
2023-03-31T13:54:41.308Z,72.38
2023-03-31T13:57:49.415Z,73.27
2023-03-31T14:00:33.677Z,74.09
2023-03-31T14:03:24.008Z,73.54
2023-03-31T14:06:00.585Z,74.58
2023-03-31T14:08:40.834Z,75.11
2023-03-31T14:11:22.305Z,75.13
2023-03-31T14:14:04.542Z,74.82
2023-03-31T14:16:37.134Z,73.96
2023-03-31T14:19:29.195Z,74.77
2023-03-31T14:22:07.506Z,73.37
2023-03-31T14:24:42.648Z,73.01
2023-03-31T14:27:22.039Z,72.67
2023-03-31T14:29:58.188Z,71.40
2023-03-31T14:32:34.347Z,71.12
2023-03-31T14:35:18.687Z,71.42
2023-03-31T14:37:49.052Z,71.50
2023-03-31T14:40:19.079Z,72.21
2023-03-31T14:42:49.722Z,73.41
2023-03-31T14:45:20.803Z,72.63
2023-03-31T14:47:57.153Z,72.69
2023-03-31T14:50:32.589Z,72.30
2023-03-31T14:53:02.434Z,72.44
2023-03-31T14:55:49.307Z,72.09
2023-03-31T14:58:28.148Z,71.22
2023-03-31T15:00:56.848Z,70.67
2023-03-31T15:03:27.462Z,69.53
2023-03-31T15:05:59.830Z,69.85
2023-03-31T15:08:30.949Z,70.27
2023-03-31T15:11:11.760Z,69.86
2023-03-31T15:13:56.570Z,68.34
2023-03-31T15:16:39.062Z,68.19
2023-03-31T15:19:14.904Z,68.13
2023-03-31T15:21:43.230Z,67.58
2023-03-31T15:24:14.945Z,67.48
2023-03-31T15:26:48.278Z,66.91
2023-03-31T15:29:21.082Z,67.55
2023-03-31T15:31:49.564Z,65.61
2023-03-31T15:34:24.741Z,65.67
2023-03-31T15:36:56.386Z,66.20
2023-03-31T15:39:27.548Z,66.74
2023-03-31T15:41:57.844Z,65.63
2023-03-31T15:44:36.315Z,65.93
2023-03-31T15:47:13.694Z,65.97
2023-03-31T15:49:50.950Z,65.96
2023-03-31T15:52:24.064Z,66.42
2023-03-31T15:54:53.514Z,66.53
2023-03-31T15:57:22.529Z,66.24
2023-03-31T15:59:56.729Z,66.52
2023-03-31T16:02:27.989Z,66.78
2023-03-31T16:04:59.717Z,66.59
2023-03-31T16:07:31.603Z,66.63
2023-03-31T16:10:04.564Z,65.95
2023-03-31T16:12:36.921Z,66.42
2023-03-31T16:15:10.066Z,66.18
2023-03-31T16:17:43.356Z,66.42
2023-03-31T16:20:20.663Z,66.53
2023-03-31T16:22:53.182Z,66.75
2023-03-31T16:25:25.506Z,66.93
2023-03-31T16:27:57.745Z,66.27
2023-03-31T16:30:37.235Z,66.56
2023-03-31T16:33:08.150Z,66.23
2023-03-31T16:35:38.387Z,66.37
2023-03-31T16:38:07.668Z,66.56
2023-03-31T16:40:39.072Z,66.30
2023-03-31T16:43:14.261Z,65.94
2023-03-31T16:45:44.605Z,65.79
2023-03-31T16:48:16.239Z,66.19
2023-03-31T16:50:46.017Z,66.19
2023-03-31T16:53:14.818Z,66.29
2023-03-31T16:55:44.679Z,66.67
2023-03-31T16:58:13.272Z,67.75
2023-03-31T17:00:42.082Z,68.27
2023-03-31T17:03:11.754Z,68.25
2023-03-31T17:05:41.360Z,69.09
2023-03-31T17:08:10.182Z,68.82
2023-03-31T17:10:39.167Z,68.73
2023-03-31T17:13:10.495Z,68.73
2023-03-31T17:15:40.111Z,68.76
2023-03-31T17:18:08.861Z,68.94
2023-03-31T17:20:37.399Z,69.03
2023-03-31T17:23:06.832Z,69.46
2023-03-31T17:25:36.473Z,68.89
2023-03-31T17:28:05.482Z,68.76
2023-03-31T17:30:38.781Z,68.55
2023-03-31T17:33:07.052Z,68.92
2023-03-31T17:35:35.276Z,69.05
2023-03-31T17:38:04.228Z,69.02
2023-03-31T17:40:34.740Z,69.68
2023-03-31T17:43:04.509Z,69.35
2023-03-31T17:45:34.833Z,69.73
2023-03-31T17:48:06.030Z,70.23
2023-03-31T17:50:34.141Z,70.53
2023-03-31T17:53:02.228Z,70.37
2023-03-31T17:55:31.402Z,70.51
2023-03-31T17:57:59.299Z,70.37
2023-03-31T18:00:27.306Z,70.43
2023-03-31T18:02:57.146Z,70.47
2023-03-31T18:05:25.292Z,70.27
2023-03-31T18:07:53.649Z,70.19
2023-03-31T18:10:22.602Z,70.56
2023-03-31T18:12:50.832Z,69.93
2023-03-31T18:15:19.302Z,70.05
2023-03-31T18:17:47.990Z,69.67
2023-03-31T18:20:18.278Z,69.52
2023-03-31T18:22:47.830Z,70.14
2023-03-31T18:25:16.436Z,71.22
2023-03-31T18:27:44.642Z,71.21
2023-03-31T18:30:14.201Z,72.40
2023-03-31T18:32:42.323Z,73.53
2023-03-31T18:35:12.112Z,74.26
2023-03-31T18:37:41.416Z,74.36
2023-03-31T18:40:11.116Z,74.69
2023-03-31T18:42:40.162Z,74.73
2023-03-31T18:45:08.917Z,73.67
2023-03-31T18:47:37.296Z,73.75
2023-03-31T18:50:06.588Z,73.57
2023-03-31T18:52:36.003Z,73.20
2023-03-31T18:55:06.679Z,73.19
2023-03-31T18:57:34.920Z,72.92
2023-03-31T19:00:03.739Z,72.40
2023-03-31T19:02:32.324Z,72.84
2023-03-31T19:05:00.373Z,72.60
2023-03-31T19:07:29.051Z,72.28
2023-03-31T19:09:57.160Z,72.04
2023-03-31T19:12:26.623Z,71.56
2023-03-31T19:14:54.588Z,71.46
2023-03-31T19:17:22.493Z,71.53
2023-03-31T19:19:50.719Z,71.73
2023-03-31T19:22:18.733Z,71.48
2023-03-31T19:24:46.794Z,71.08
2023-03-31T19:27:14.952Z,70.42
2023-03-31T19:29:44.710Z,70.61
2023-03-31T19:32:12.701Z,70.75
2023-03-31T19:34:42.552Z,70.84
2023-03-31T19:37:11.150Z,70.69
2023-03-31T19:39:39.280Z,70.75
2023-03-31T19:42:07.204Z,70.93
2023-03-31T19:44:35.173Z,71.01
2023-03-31T19:47:04.917Z,71.34
2023-03-31T19:49:32.895Z,70.91
2023-03-31T19:52:00.966Z,71.32
2023-03-31T19:54:28.971Z,71.71
2023-03-31T19:56:56.966Z,71.31
2023-03-31T19:59:24.936Z,70.81
2023-03-31T20:01:53.069Z,71.07
2023-03-31T20:04:22.608Z,71.10
2023-03-31T20:06:50.851Z,71.05
2023-03-31T20:09:18.806Z,71.33
2023-03-31T20:11:47.388Z,70.88
2023-03-31T20:14:15.549Z,71.45
2023-03-31T20:16:44.595Z,71.26
2023-03-31T20:19:12.902Z,71.08
2023-03-31T20:21:42.774Z,70.99
2023-03-31T20:24:15.823Z,70.78
2023-03-31T20:26:44.471Z,71.04
2023-03-31T20:29:13.491Z,71.56
2023-03-31T20:31:41.960Z,71.38
2023-03-31T20:34:14.048Z,71.20
2023-03-31T20:36:44.939Z,71.03
2023-03-31T20:39:15.009Z,71.10
2023-03-31T20:41:43.391Z,71.23
2023-03-31T20:44:15.251Z,71.25
2023-03-31T20:46:44.715Z,71.34
2023-03-31T20:49:12.876Z,71.13
2023-03-31T20:51:42.575Z,71.02
2023-03-31T20:54:12.071Z,70.78
2023-03-31T20:56:41.810Z,71.37
2023-03-31T20:59:12.579Z,71.66
2023-03-31T21:01:42.420Z,71.59
2023-03-31T21:04:12.415Z,72.03
2023-03-31T21:06:42.572Z,71.89
2023-03-31T21:09:12.772Z,71.76
2023-03-31T21:11:41.442Z,71.31
2023-03-31T21:14:13.944Z,71.03
2023-03-31T21:16:41.932Z,71.18
2023-03-31T21:19:10.380Z,71.22
2023-03-31T21:21:41.116Z,70.93
2023-03-31T21:24:11.231Z,71.00
2023-03-31T21:26:41.150Z,71.02
2023-03-31T21:29:09.466Z,70.83
2023-03-31T21:31:37.782Z,70.97
2023-03-31T21:34:07.014Z,71.01
2023-03-31T21:36:36.265Z,70.73
2023-03-31T21:39:06.717Z,70.63
2023-03-31T21:41:38.022Z,70.81
2023-03-31T21:44:09.140Z,70.32
2023-03-31T21:46:37.204Z,70.27
2023-03-31T21:49:05.218Z,70.48
2023-03-31T21:51:33.192Z,70.47
2023-03-31T21:54:01.371Z,70.53
2023-03-31T21:56:31.960Z,70.40
2023-03-31T21:59:01.266Z,70.10
2023-03-31T22:01:31.234Z,70.27
2023-03-31T22:04:00.329Z,70.02
2023-03-31T22:06:28.531Z,69.59
2023-03-31T22:08:56.600Z,69.83
2023-03-31T22:11:24.708Z,70.10
2023-03-31T22:13:52.957Z,70.00
2023-03-31T22:16:22.851Z,69.89
2023-03-31T22:18:52.845Z,69.71
2023-03-31T22:21:22.820Z,69.45
2023-03-31T22:23:52.411Z,69.80
2023-03-31T22:26:20.451Z,70.26
2023-03-31T22:28:49.983Z,69.85
2023-03-31T22:31:18.525Z,70.04
2023-03-31T22:33:47.103Z,70.17
2023-03-31T22:36:16.577Z,70.31
2023-03-31T22:38:44.893Z,70.22
2023-03-31T22:41:12.831Z,70.29
2023-03-31T22:43:43.764Z,70.27
2023-03-31T22:46:13.855Z,69.84
2023-03-31T22:48:42.182Z,70.16
2023-03-31T22:51:12.011Z,70.30
2023-03-31T22:53:42.016Z,70.63
2023-03-31T22:56:13.175Z,70.89
2023-03-31T22:58:41.360Z,70.44
2023-03-31T23:01:14.627Z,70.38
2023-03-31T23:03:43.169Z,70.43
2023-03-31T23:06:11.995Z,70.27
2023-03-31T23:08:42.096Z,70.58
2023-03-31T23:11:13.051Z,70.47
2023-03-31T23:13:41.129Z,70.29
2023-03-31T23:16:11.600Z,70.54
2023-03-31T23:18:44.255Z,70.39
2023-03-31T23:21:13.163Z,70.21
2023-03-31T23:23:43.153Z,70.17
2023-03-31T23:26:12.359Z,69.88
2023-03-31T23:28:41.374Z,69.96
2023-03-31T23:31:09.324Z,70.04
2023-03-31T23:33:37.322Z,70.17
2023-03-31T23:36:07.401Z,69.95
2023-03-31T23:38:35.951Z,70.10
2023-03-31T23:41:05.321Z,70.00
2023-03-31T23:43:33.180Z,69.95
2023-03-31T23:46:02.895Z,70.05
2023-03-31T23:48:30.875Z,69.94
2023-03-31T23:50:58.959Z,70.07
2023-03-31T23:53:26.962Z,70.20
2023-03-31T23:55:56.582Z,70.32
2023-03-31T23:58:26.760Z,70.38
